sensor_id;sensor_type;location;lat;lon;timestamp;temperature;humidity
46340;DHT22;47273;49.274;8.708;2022-08-05T03:32:53;25.70;71.60
46340;DHT22;47273;49.274;8.708;2022-08-05T03:35:20;25.60;71.80
46340;DHT22;47273;49.274;8.708;2022-08-05T03:37:46;25.60;71.40
46340;DHT22;47273;49.274;8.708;2022-08-05T03:40:13;25.60;71.10
46340;DHT22;47273;49.274;8.708;2022-08-05T03:42:38;25.60;71.90
46340;DHT22;47273;49.274;8.708;2022-08-05T03:45:06;25.60;72.20
46340;DHT22;47273;49.274;8.708;2022-08-05T03:47:35;25.50;75.00
46340;DHT22;47273;49.274;8.708;2022-08-05T03:50:00;25.40;75.50
46340;DHT22;47273;49.274;8.708;2022-08-05T03:52:32;25.30;75.80
46340;DHT22;47273;49.274;8.708;2022-08-05T03:55:01;25.30;75.80
46340;DHT22;47273;49.274;8.708;2022-08-05T03:57:30;25.40;75.40
46340;DHT22;47273;49.274;8.708;2022-08-05T04:00:06;25.40;75.40
46340;DHT22;47273;49.274;8.708;2022-08-05T04:02:34;25.40;74.40
46340;DHT22;47273;49.274;8.708;2022-08-05T04:05:01;25.40;74.50
46340;DHT22;47273;49.274;8.708;2022-08-05T04:07:28;25.40;76.10
46340;DHT22;47273;49.274;8.708;2022-08-05T04:09:54;25.40;75.80
46340;DHT22;47273;49.274;8.708;2022-08-05T04:12:21;25.40;77.90
46340;DHT22;47273;49.274;8.708;2022-08-05T04:14:48;25.20;77.80
46340;DHT22;47273;49.274;8.708;2022-08-05T04:17:14;25.30;78.30
46340;DHT22;47273;49.274;8.708;2022-08-05T04:19:44;25.30;77.50
46340;DHT22;47273;49.274;8.708;2022-08-05T04:22:10;25.30;78.60
46340;DHT22;47273;49.274;8.708;2022-08-05T04:24:39;25.10;81.50
46340;DHT22;47273;49.274;8.708;2022-08-05T04:27:05;25.00;82.90
46340;DHT22;47273;49.274;8.708;2022-08-05T04:29:31;24.90;83.40
46340;DHT22;47273;49.274;8.708;2022-08-05T04:31:57;24.70;85.60
46340;DHT22;47273;49.274;8.708;2022-08-05T04:34:23;24.70;86.50
46340;DHT22;47273;49.274;8.708;2022-08-05T04:36:48;24.70;86.00
46340;DHT22;47273;49.274;8.708;2022-08-05T04:39:14;24.60;88.20
46340;DHT22;47273;49.274;8.708;2022-08-05T04:41:55;24.60;88.00
46340;DHT22;47273;49.274;8.708;2022-08-05T04:44:21;24.50;89.00
46340;DHT22;47273;49.274;8.708;2022-08-05T04:46:47;24.50;88.80
46340;DHT22;47273;49.274;8.708;2022-08-05T04:49:13;24.40;89.50
46340;DHT22;47273;49.274;8.708;2022-08-05T04:51:42;24.40;90.10
46340;DHT22;47273;49.274;8.708;2022-08-05T04:54:08;24.50;87.80
46340;DHT22;47273;49.274;8.708;2022-08-05T04:56:33;24.50;86.50
46340;DHT22;47273;49.274;8.708;2022-08-05T04:58:59;24.40;86.80
46340;DHT22;47273;49.274;8.708;2022-08-05T05:01:25;24.30;87.80
46340;DHT22;47273;49.274;8.708;2022-08-05T05:03:50;24.20;87.10
46340;DHT22;47273;49.274;8.708;2022-08-05T05:06:16;24.20;87.80
46340;DHT22;47273;49.274;8.708;2022-08-05T05:08:44;24.30;86.70
46340;DHT22;47273;49.274;8.708;2022-08-05T05:11:09;24.30;84.70
46340;DHT22;47273;49.274;8.708;2022-08-05T05:13:35;24.30;83.10
46340;DHT22;47273;49.274;8.708;2022-08-05T05:16:01;24.30;82.80
46340;DHT22;47273;49.274;8.708;2022-08-05T05:18:28;24.30;82.60
46340;DHT22;47273;49.274;8.708;2022-08-05T05:20:54;24.30;82.10
46340;DHT22;47273;49.274;8.708;2022-08-05T05:23:20;24.30;82.10
46340;DHT22;47273;49.274;8.708;2022-08-05T05:25:46;24.30;80.80
46340;DHT22;47273;49.274;8.708;2022-08-05T05:28:11;24.30;80.40
46340;DHT22;47273;49.274;8.708;2022-08-05T05:30:38;24.30;80.20
46340;DHT22;47273;49.274;8.708;2022-08-05T05:33:05;24.30;80.40
46340;DHT22;47273;49.274;8.708;2022-08-05T05:35:32;24.30;80.50
46340;DHT22;47273;49.274;8.708;2022-08-05T05:37:59;24.40;80.30
46340;DHT22;47273;49.274;8.708;2022-08-05T05:40:29;24.40;80.70
46340;DHT22;47273;49.274;8.708;2022-08-05T05:42:59;24.40;80.00
46340;DHT22;47273;49.274;8.708;2022-08-05T05:45:25;24.50;79.60
46340;DHT22;47273;49.274;8.708;2022-08-05T05:47:51;24.70;80.50
46340;DHT22;47273;49.274;8.708;2022-08-05T05:50:17;24.80;79.00
46340;DHT22;47273;49.274;8.708;2022-08-05T05:52:45;24.90;79.90
46340;DHT22;47273;49.274;8.708;2022-08-05T05:55:12;25.00;79.10
46340;DHT22;47273;49.274;8.708;2022-08-05T05:57:40;25.10;79.20
46340;DHT22;47273;49.274;8.708;2022-08-05T06:00:08;25.20;78.30
46340;DHT22;47273;49.274;8.708;2022-08-05T06:02:37;25.30;78.10
46340;DHT22;47273;49.274;8.708;2022-08-05T06:05:03;25.30;77.60
46340;DHT22;47273;49.274;8.708;2022-08-05T06:07:28;25.30;77.50
46340;DHT22;47273;49.274;8.708;2022-08-05T06:09:54;25.30;77.60
46340;DHT22;47273;49.274;8.708;2022-08-05T06:12:20;25.30;78.00
46340;DHT22;47273;49.274;8.708;2022-08-05T06:14:45;25.20;79.20
46340;DHT22;47273;49.274;8.708;2022-08-05T06:17:11;25.10;78.90
46340;DHT22;47273;49.274;8.708;2022-08-05T06:19:40;25.10;80.40
46340;DHT22;47273;49.274;8.708;2022-08-05T06:22:06;25.00;79.90
46340;DHT22;47273;49.274;8.708;2022-08-05T06:24:33;25.00;78.50
46340;DHT22;47273;49.274;8.708;2022-08-05T06:26:59;25.00;79.70
46340;DHT22;47273;49.274;8.708;2022-08-05T06:29:25;24.90;80.40
46340;DHT22;47273;49.274;8.708;2022-08-05T06:31:51;25.00;80.40
46340;DHT22;47273;49.274;8.708;2022-08-05T06:34:17;24.80;81.70
46340;DHT22;47273;49.274;8.708;2022-08-05T06:36:43;24.90;81.60
46340;DHT22;47273;49.274;8.708;2022-08-05T06:39:09;25.00;80.40
46340;DHT22;47273;49.274;8.708;2022-08-05T06:41:44;25.00;81.50
46340;DHT22;47273;49.274;8.708;2022-08-05T06:44:09;25.10;81.80
46340;DHT22;47273;49.274;8.708;2022-08-05T06:46:35;25.10;81.40
46340;DHT22;47273;49.274;8.708;2022-08-05T06:49:01;25.20;81.50
46340;DHT22;47273;49.274;8.708;2022-08-05T06:51:26;25.20;81.80
46340;DHT22;47273;49.274;8.708;2022-08-05T06:53:52;25.40;80.90
46340;DHT22;47273;49.274;8.708;2022-08-05T06:56:18;25.50;81.40
46340;DHT22;47273;49.274;8.708;2022-08-05T06:58:46;25.60;80.80
46340;DHT22;47273;49.274;8.708;2022-08-05T07:01:12;25.80;80.30
46340;DHT22;47273;49.274;8.708;2022-08-05T07:03:38;25.80;80.00
46340;DHT22;47273;49.274;8.708;2022-08-05T07:06:03;25.90;77.80
46340;DHT22;47273;49.274;8.708;2022-08-05T07:08:29;26.10;77.10
46340;DHT22;47273;49.274;8.708;2022-08-05T07:10:55;26.20;76.20
46340;DHT22;47273;49.274;8.708;2022-08-05T07:13:22;26.20;74.70
46340;DHT22;47273;49.274;8.708;2022-08-05T07:16:06;26.30;74.40
46340;DHT22;47273;49.274;8.708;2022-08-05T07:18:50;26.40;74.10
46340;DHT22;47273;49.274;8.708;2022-08-05T07:21:16;26.40;73.70
46340;DHT22;47273;49.274;8.708;2022-08-05T07:23:41;26.40;73.50
46340;DHT22;47273;49.274;8.708;2022-08-05T07:26:07;26.40;74.20
46340;DHT22;47273;49.274;8.708;2022-08-05T07:28:36;26.70;74.40
46340;DHT22;47273;49.274;8.708;2022-08-05T07:31:02;26.80;73.60
46340;DHT22;47273;49.274;8.708;2022-08-05T07:33:27;26.90;71.90
46340;DHT22;47273;49.274;8.708;2022-08-05T07:35:59;26.90;71.30
46340;DHT22;47273;49.274;8.708;2022-08-05T07:38:25;26.90;70.20
46340;DHT22;47273;49.274;8.708;2022-08-05T07:40:50;27.00;70.00
46340;DHT22;47273;49.274;8.708;2022-08-05T07:43:19;27.10;70.00
46340;DHT22;47273;49.274;8.708;2022-08-05T07:45:44;27.20;69.50
46340;DHT22;47273;49.274;8.708;2022-08-05T07:48:11;27.20;68.80
46340;DHT22;47273;49.274;8.708;2022-08-05T07:50:37;27.20;69.50
46340;DHT22;47273;49.274;8.708;2022-08-05T07:53:02;27.30;69.30
46340;DHT22;47273;49.274;8.708;2022-08-05T07:55:28;27.40;68.80
46340;DHT22;47273;49.274;8.708;2022-08-05T07:57:56;27.40;69.00
46340;DHT22;47273;49.274;8.708;2022-08-05T08:00:22;27.30;68.60
46340;DHT22;47273;49.274;8.708;2022-08-05T08:02:47;27.60;68.70
46340;DHT22;47273;49.274;8.708;2022-08-05T08:05:36;27.40;68.50
46340;DHT22;47273;49.274;8.708;2022-08-05T08:08:06;27.40;68.60
46340;DHT22;47273;49.274;8.708;2022-08-05T08:10:32;27.60;68.40
46340;DHT22;47273;49.274;8.708;2022-08-05T08:13:00;27.80;67.60
46340;DHT22;47273;49.274;8.708;2022-08-05T08:15:26;27.90;67.20
46340;DHT22;47273;49.274;8.708;2022-08-05T08:17:52;28.10;67.70
46340;DHT22;47273;49.274;8.708;2022-08-05T08:20:18;28.00;67.50
46340;DHT22;47273;49.274;8.708;2022-08-05T08:22:53;28.00;67.50
46340;DHT22;47273;49.274;8.708;2022-08-05T08:25:19;27.90;67.20
46340;DHT22;47273;49.274;8.708;2022-08-05T08:27:48;28.00;67.10
46340;DHT22;47273;49.274;8.708;2022-08-05T08:30:14;27.90;66.30
46340;DHT22;47273;49.274;8.708;2022-08-05T08:32:43;28.00;66.40
46340;DHT22;47273;49.274;8.708;2022-08-05T08:35:11;28.10;66.70
46340;DHT22;47273;49.274;8.708;2022-08-05T08:37:38;28.20;65.70
46340;DHT22;47273;49.274;8.708;2022-08-05T08:40:04;28.30;64.80
46340;DHT22;47273;49.274;8.708;2022-08-05T08:42:30;28.60;64.80
46340;DHT22;47273;49.274;8.708;2022-08-05T08:44:57;29.00;63.70
46340;DHT22;47273;49.274;8.708;2022-08-05T08:47:27;29.30;63.10
46340;DHT22;47273;49.274;8.708;2022-08-05T08:49:55;29.30;61.60
46340;DHT22;47273;49.274;8.708;2022-08-05T08:52:30;29.10;61.90
46340;DHT22;47273;49.274;8.708;2022-08-05T08:54:58;29.00;62.10
46340;DHT22;47273;49.274;8.708;2022-08-05T08:57:30;28.60;61.50
46340;DHT22;47273;49.274;8.708;2022-08-05T08:59:58;28.50;63.20
46340;DHT22;47273;49.274;8.708;2022-08-05T09:02:33;28.50;64.10
46340;DHT22;47273;49.274;8.708;2022-08-05T09:05:05;28.40;63.90
46340;DHT22;47273;49.274;8.708;2022-08-05T09:07:31;28.40;64.00
46340;DHT22;47273;49.274;8.708;2022-08-05T09:09:57;28.50;64.50
46340;DHT22;47273;49.274;8.708;2022-08-05T09:12:22;28.60;64.70
46340;DHT22;47273;49.274;8.708;2022-08-05T09:14:48;29.00;63.80
46340;DHT22;47273;49.274;8.708;2022-08-05T09:17:14;29.20;62.80
46340;DHT22;47273;49.274;8.708;2022-08-05T09:19:40;29.20;61.50
46340;DHT22;47273;49.274;8.708;2022-08-05T09:22:06;29.20;62.30
46340;DHT22;47273;49.274;8.708;2022-08-05T09:24:35;29.10;62.10
46340;DHT22;47273;49.274;8.708;2022-08-05T09:27:07;29.10;60.80
46340;DHT22;47273;49.274;8.708;2022-08-05T09:29:41;29.10;59.00
46340;DHT22;47273;49.274;8.708;2022-08-05T09:32:10;29.00;58.30
46340;DHT22;47273;49.274;8.708;2022-08-05T09:34:50;29.00;58.70
46340;DHT22;47273;49.274;8.708;2022-08-05T09:37:18;29.10;58.10
46340;DHT22;47273;49.274;8.708;2022-08-05T09:39:50;29.10;57.60
46340;DHT22;47273;49.274;8.708;2022-08-05T09:42:19;29.20;57.60
46340;DHT22;47273;49.274;8.708;2022-08-05T09:44:49;29.40;57.40
46340;DHT22;47273;49.274;8.708;2022-08-05T09:47:23;29.50;56.90
46340;DHT22;47273;49.274;8.708;2022-08-05T09:49:54;29.50;56.30
46340;DHT22;47273;49.274;8.708;2022-08-05T09:52:24;29.50;56.60
46340;DHT22;47273;49.274;8.708;2022-08-05T09:54:52;29.70;56.60
46340;DHT22;47273;49.274;8.708;2022-08-05T09:57:36;29.80;56.80
46340;DHT22;47273;49.274;8.708;2022-08-05T10:05:32;30.20;56.60
46340;DHT22;47273;49.274;8.708;2022-08-05T10:08:03;30.50;57.00
46340;DHT22;47273;49.274;8.708;2022-08-05T10:10:48;30.70;56.00
46340;DHT22;47273;49.274;8.708;2022-08-05T10:13:37;30.80;56.20
46340;DHT22;47273;49.274;8.708;2022-08-05T10:16:04;31.00;56.00
46340;DHT22;47273;49.274;8.708;2022-08-05T10:18:31;31.00;54.60
46340;DHT22;47273;49.274;8.708;2022-08-05T10:21:03;31.10;54.40
46340;DHT22;47273;49.274;8.708;2022-08-05T10:23:31;31.20;54.20
46340;DHT22;47273;49.274;8.708;2022-08-05T10:26:01;31.30;53.90
46340;DHT22;47273;49.274;8.708;2022-08-05T10:28:27;31.50;53.30
46340;DHT22;47273;49.274;8.708;2022-08-05T10:30:54;31.40;52.60
46340;DHT22;47273;49.274;8.708;2022-08-05T10:33:22;31.60;52.80
46340;DHT22;47273;49.274;8.708;2022-08-05T10:35:50;31.70;53.30
46340;DHT22;47273;49.274;8.708;2022-08-05T10:38:18;31.90;53.40
46340;DHT22;47273;49.274;8.708;2022-08-05T10:41:01;32.10;52.70
46340;DHT22;47273;49.274;8.708;2022-08-05T10:43:47;32.00;52.00
46340;DHT22;47273;49.274;8.708;2022-08-05T10:46:16;32.20;52.00
46340;DHT22;47273;49.274;8.708;2022-08-05T10:48:54;32.20;51.50
46340;DHT22;47273;49.274;8.708;2022-08-05T10:51:44;32.30;51.90
46340;DHT22;47273;49.274;8.708;2022-08-05T10:54:10;32.40;51.70
46340;DHT22;47273;49.274;8.708;2022-08-05T10:56:44;32.50;51.90
46340;DHT22;47273;49.274;8.708;2022-08-05T10:59:16;32.50;51.00
46340;DHT22;47273;49.274;8.708;2022-08-05T11:01:42;32.60;50.40
46340;DHT22;47273;49.274;8.708;2022-08-05T11:04:16;32.80;50.70
46340;DHT22;47273;49.274;8.708;2022-08-05T11:07:04;33.10;51.10
46340;DHT22;47273;49.274;8.708;2022-08-05T11:09:38;33.30;51.10
46340;DHT22;47273;49.274;8.708;2022-08-05T11:12:40;33.40;51.10
46340;DHT22;47273;49.274;8.708;2022-08-05T11:17:43;33.90;49.00
46340;DHT22;47273;49.274;8.708;2022-08-05T11:20:35;34.10;48.80
46340;DHT22;47273;49.274;8.708;2022-08-05T11:26:09;34.10;48.00
46340;DHT22;47273;49.274;8.708;2022-08-05T11:28:41;34.20;48.40
46340;DHT22;47273;49.274;8.708;2022-08-05T11:36:18;34.90;48.30
46340;DHT22;47273;49.274;8.708;2022-08-05T11:41:24;35.00;48.20
46340;DHT22;47273;49.274;8.708;2022-08-05T11:44:05;35.20;47.50
46340;DHT22;47273;49.274;8.708;2022-08-05T11:46:50;35.50;46.90
46340;DHT22;47273;49.274;8.708;2022-08-05T11:49:21;35.50;47.00
46340;DHT22;47273;49.274;8.708;2022-08-05T11:51:49;35.50;47.50
46340;DHT22;47273;49.274;8.708;2022-08-05T11:54:23;35.50;47.30
46340;DHT22;47273;49.274;8.708;2022-08-05T11:56:52;35.50;46.50
46340;DHT22;47273;49.274;8.708;2022-08-05T11:59:22;35.50;46.50
46340;DHT22;47273;49.274;8.708;2022-08-05T12:01:58;35.90;46.70
46340;DHT22;47273;49.274;8.708;2022-08-05T12:04:26;36.20;46.60
46340;DHT22;47273;49.274;8.708;2022-08-05T12:06:52;36.30;46.30
46340;DHT22;47273;49.274;8.708;2022-08-05T12:09:22;36.20;46.60
46340;DHT22;47273;49.274;8.708;2022-08-05T12:11:52;36.10;45.80
46340;DHT22;47273;49.274;8.708;2022-08-05T12:14:17;36.00;45.70
46340;DHT22;47273;49.274;8.708;2022-08-05T12:16:44;36.00;45.90
46340;DHT22;47273;49.274;8.708;2022-08-05T12:19:14;36.30;45.80
46340;DHT22;47273;49.274;8.708;2022-08-05T12:21:46;36.50;46.00
46340;DHT22;47273;49.274;8.708;2022-08-05T12:24:20;35.90;46.80
46340;DHT22;47273;49.274;8.708;2022-08-05T12:26:50;35.80;47.80
46340;DHT22;47273;49.274;8.708;2022-08-05T12:29:19;35.70;47.40
46340;DHT22;47273;49.274;8.708;2022-08-05T12:31:53;35.30;48.30
46340;DHT22;47273;49.274;8.708;2022-08-05T12:34:25;34.80;48.80
46340;DHT22;47273;49.274;8.708;2022-08-05T12:36:54;34.30;50.20
46340;DHT22;47273;49.274;8.708;2022-08-05T12:39:22;34.00;50.80
46340;DHT22;47273;49.274;8.708;2022-08-05T12:41:48;33.70;51.60
46340;DHT22;47273;49.274;8.708;2022-08-05T12:44:17;33.70;51.50
46340;DHT22;47273;49.274;8.708;2022-08-05T12:46:51;33.80;51.20
46340;DHT22;47273;49.274;8.708;2022-08-05T12:49:23;33.70;52.00
46340;DHT22;47273;49.274;8.708;2022-08-05T12:51:55;34.10;52.00
46340;DHT22;47273;49.274;8.708;2022-08-05T12:54:23;34.30;51.10
46340;DHT22;47273;49.274;8.708;2022-08-05T12:57:01;34.60;51.10
46340;DHT22;47273;49.274;8.708;2022-08-05T12:59:30;34.30;51.40
46340;DHT22;47273;49.274;8.708;2022-08-05T13:02:05;34.10;51.60
46340;DHT22;47273;49.274;8.708;2022-08-05T13:04:33;34.00;51.50
46340;DHT22;47273;49.274;8.708;2022-08-05T13:07:03;34.00;52.00
46340;DHT22;47273;49.274;8.708;2022-08-05T13:09:30;33.90;52.10
46340;DHT22;47273;49.274;8.708;2022-08-05T13:12:04;33.90;52.00
46340;DHT22;47273;49.274;8.708;2022-08-05T13:14:37;34.30;52.00
46340;DHT22;47273;49.274;8.708;2022-08-05T13:17:24;34.30;51.50
46340;DHT22;47273;49.274;8.708;2022-08-05T13:22:34;34.00;52.20
46340;DHT22;47273;49.274;8.708;2022-08-05T13:25:03;33.50;52.50
46340;DHT22;47273;49.274;8.708;2022-08-05T13:27:35;33.50;52.60
46340;DHT22;47273;49.274;8.708;2022-08-05T13:30:02;33.60;52.90
46340;DHT22;47273;49.274;8.708;2022-08-05T13:32:28;33.80;53.40
46340;DHT22;47273;49.274;8.708;2022-08-05T13:34:54;33.70;52.50
46340;DHT22;47273;49.274;8.708;2022-08-05T13:37:21;33.50;52.00
46340;DHT22;47273;49.274;8.708;2022-08-05T13:39:51;33.20;52.40
46340;DHT22;47273;49.274;8.708;2022-08-05T13:42:21;33.30;53.00
46340;DHT22;47273;49.274;8.708;2022-08-05T13:44:50;33.40;53.30
46340;DHT22;47273;49.274;8.708;2022-08-05T13:47:16;33.50;52.70
46340;DHT22;47273;49.274;8.708;2022-08-05T13:49:42;33.50;53.30
46340;DHT22;47273;49.274;8.708;2022-08-05T13:52:16;33.60;52.80
46340;DHT22;47273;49.274;8.708;2022-08-05T13:54:42;33.50;52.80
46340;DHT22;47273;49.274;8.708;2022-08-05T13:57:09;33.20;53.30
46340;DHT22;47273;49.274;8.708;2022-08-05T13:59:35;32.80;53.90
46340;DHT22;47273;49.274;8.708;2022-08-05T14:02:01;32.80;54.20
46340;DHT22;47273;49.274;8.708;2022-08-05T14:04:30;32.60;54.20
46340;DHT22;47273;49.274;8.708;2022-08-05T14:07:21;32.60;53.90
46340;DHT22;47273;49.274;8.708;2022-08-05T14:09:47;32.60;53.90
46340;DHT22;47273;49.274;8.708;2022-08-05T14:12:13;32.80;53.90
46340;DHT22;47273;49.274;8.708;2022-08-05T14:14:38;33.00;53.70
46340;DHT22;47273;49.274;8.708;2022-08-05T14:17:04;32.80;53.40
46340;DHT22;47273;49.274;8.708;2022-08-05T14:19:33;32.70;54.20
46340;DHT22;47273;49.274;8.708;2022-08-05T14:21:59;32.60;54.00
46340;DHT22;47273;49.274;8.708;2022-08-05T14:24:25;32.60;54.10
46340;DHT22;47273;49.274;8.708;2022-08-05T14:26:50;32.80;54.20
46340;DHT22;47273;49.274;8.708;2022-08-05T14:29:16;32.60;53.80
46340;DHT22;47273;49.274;8.708;2022-08-05T14:31:45;32.70;53.80
46340;DHT22;47273;49.274;8.708;2022-08-05T14:34:11;32.80;53.70
46340;DHT22;47273;49.274;8.708;2022-08-05T14:36:36;33.00;53.60
46340;DHT22;47273;49.274;8.708;2022-08-05T14:39:03;33.00;53.00
46340;DHT22;47273;49.274;8.708;2022-08-05T14:41:30;32.80;53.10
46340;DHT22;47273;49.274;8.708;2022-08-05T14:43:56;32.60;53.80
46340;DHT22;47273;49.274;8.708;2022-08-05T14:46:26;32.40;54.20
46340;DHT22;47273;49.274;8.708;2022-08-05T14:48:52;32.20;54.40
46340;DHT22;47273;49.274;8.708;2022-08-05T14:51:18;31.90;54.70
46340;DHT22;47273;49.274;8.708;2022-08-05T14:53:44;32.00;55.00
46340;DHT22;47273;49.274;8.708;2022-08-05T14:56:14;32.00;54.90
46340;DHT22;47273;49.274;8.708;2022-08-05T14:58:40;31.90;54.60
46340;DHT22;47273;49.274;8.708;2022-08-05T15:01:06;31.70;55.20
46340;DHT22;47273;49.274;8.708;2022-08-05T15:03:31;31.60;54.80
46340;DHT22;47273;49.274;8.708;2022-08-05T15:05:57;31.50;55.30
46340;DHT22;47273;49.274;8.708;2022-08-05T15:08:23;31.40;55.50
46340;DHT22;47273;49.274;8.708;2022-08-05T15:10:50;31.30;55.40
46340;DHT22;47273;49.274;8.708;2022-08-05T15:13:16;31.30;55.40
46340;DHT22;47273;49.274;8.708;2022-08-05T15:15:42;31.10;55.90
46340;DHT22;47273;49.274;8.708;2022-08-05T15:18:08;30.90;56.20
46340;DHT22;47273;49.274;8.708;2022-08-05T15:20:36;30.80;56.10
46340;DHT22;47273;49.274;8.708;2022-08-05T15:23:08;30.70;56.60
46340;DHT22;47273;49.274;8.708;2022-08-05T15:25:34;30.50;57.10
46340;DHT22;47273;49.274;8.708;2022-08-05T15:28:00;30.40;56.90
46340;DHT22;47273;49.274;8.708;2022-08-05T15:30:30;30.20;56.90
46340;DHT22;47273;49.274;8.708;2022-08-05T15:32:57;30.10;57.20
46340;DHT22;47273;49.274;8.708;2022-08-05T15:35:23;30.00;57.40
46340;DHT22;47273;49.274;8.708;2022-08-05T15:37:49;30.10;57.50
46340;DHT22;47273;49.274;8.708;2022-08-05T15:40:14;30.00;57.20
46340;DHT22;47273;49.274;8.708;2022-08-05T15:42:40;29.80;57.30
46340;DHT22;47273;49.274;8.708;2022-08-05T15:45:06;29.80;58.00
46340;DHT22;47273;49.274;8.708;2022-08-05T15:47:32;29.80;57.60
46340;DHT22;47273;49.274;8.708;2022-08-05T15:50:00;29.80;58.00
46340;DHT22;47273;49.274;8.708;2022-08-05T15:52:28;29.80;58.00
46340;DHT22;47273;49.274;8.708;2022-08-05T15:54:54;29.90;58.10
46340;DHT22;47273;49.274;8.708;2022-08-05T15:57:20;30.00;58.10
46340;DHT22;47273;49.274;8.708;2022-08-05T15:59:46;30.30;58.20
46340;DHT22;47273;49.274;8.708;2022-08-05T16:02:11;30.30;58.50
46340;DHT22;47273;49.274;8.708;2022-08-05T16:04:37;30.30;58.60
46340;DHT22;47273;49.274;8.708;2022-08-05T16:07:03;30.00;60.30
46340;DHT22;47273;49.274;8.708;2022-08-05T16:09:33;29.60;61.60
46340;DHT22;47273;49.274;8.708;2022-08-05T16:11:59;29.50;62.00
46340;DHT22;47273;49.274;8.708;2022-08-05T16:14:25;29.60;62.50
46340;DHT22;47273;49.274;8.708;2022-08-05T16:16:51;29.50;63.10
46340;DHT22;47273;49.274;8.708;2022-08-05T16:19:17;29.30;63.80
46340;DHT22;47273;49.274;8.708;2022-08-05T16:21:42;29.20;63.60
46340;DHT22;47273;49.274;8.708;2022-08-05T16:24:09;29.00;64.00
46340;DHT22;47273;49.274;8.708;2022-08-05T16:26:52;28.90;64.20
46340;DHT22;47273;49.274;8.708;2022-08-05T16:29:19;28.90;64.40
46340;DHT22;47273;49.274;8.708;2022-08-05T16:31:45;29.10;63.40
46340;DHT22;47273;49.274;8.708;2022-08-05T16:34:11;29.30;63.30
46340;DHT22;47273;49.274;8.708;2022-08-05T16:36:37;29.40;63.20
46340;DHT22;47273;49.274;8.708;2022-08-05T16:39:02;29.10;63.10
46340;DHT22;47273;49.274;8.708;2022-08-05T16:41:28;29.00;64.00
46340;DHT22;47273;49.274;8.708;2022-08-05T16:43:54;28.90;63.70
46340;DHT22;47273;49.274;8.708;2022-08-05T16:46:22;28.80;64.20
46340;DHT22;47273;49.274;8.708;2022-08-05T16:48:48;28.80;64.10
46340;DHT22;47273;49.274;8.708;2022-08-05T16:51:14;28.90;64.30
46340;DHT22;47273;49.274;8.708;2022-08-05T16:53:41;28.70;64.00
46340;DHT22;47273;49.274;8.708;2022-08-05T16:56:09;28.80;64.10
46340;DHT22;47273;49.274;8.708;2022-08-05T16:58:35;28.70;64.30
46340;DHT22;47273;49.274;8.708;2022-08-05T17:01:00;28.50;63.70
46340;DHT22;47273;49.274;8.708;2022-08-05T17:03:26;28.40;64.20
46340;DHT22;47273;49.274;8.708;2022-08-05T17:05:52;28.40;64.00
46340;DHT22;47273;49.274;8.708;2022-08-05T17:08:17;28.20;64.50
46340;DHT22;47273;49.274;8.708;2022-08-05T17:10:43;28.10;64.70
46340;DHT22;47273;49.274;8.708;2022-08-05T17:13:09;28.20;64.60
46340;DHT22;47273;49.274;8.708;2022-08-05T17:15:35;27.80;64.70
46340;DHT22;47273;49.274;8.708;2022-08-05T17:18:07;27.70;65.20
46340;DHT22;47273;49.274;8.708;2022-08-05T17:20:33;27.40;65.40
46340;DHT22;47273;49.274;8.708;2022-08-05T17:22:58;27.40;65.50
46340;DHT22;47273;49.274;8.708;2022-08-05T17:25:25;27.30;65.60
46340;DHT22;47273;49.274;8.708;2022-08-05T17:27:56;27.20;64.80
46340;DHT22;47273;49.274;8.708;2022-08-05T17:30:22;27.10;64.50
46340;DHT22;47273;49.274;8.708;2022-08-05T18:09:29;25.90;64.80
46340;DHT22;47273;49.274;8.708;2022-08-05T18:11:55;25.60;65.30
46340;DHT22;47273;49.274;8.708;2022-08-05T18:14:21;25.70;65.70
46340;DHT22;47273;49.274;8.708;2022-08-05T18:16:46;25.60;66.10
46340;DHT22;47273;49.274;8.708;2022-08-05T18:19:12;25.60;66.20
46340;DHT22;47273;49.274;8.708;2022-08-05T18:21:38;25.40;66.50
46340;DHT22;47273;49.274;8.708;2022-08-05T18:24:04;25.30;66.80
46340;DHT22;47273;49.274;8.708;2022-08-05T18:26:30;25.30;66.70
46340;DHT22;47273;49.274;8.708;2022-08-05T18:28:56;25.20;66.70
46340;DHT22;47273;49.274;8.708;2022-08-05T18:31:23;25.10;67.90
46340;DHT22;47273;49.274;8.708;2022-08-05T18:33:50;25.00;68.00
46340;DHT22;47273;49.274;8.708;2022-08-05T18:36:16;25.00;67.70
46340;DHT22;47273;49.274;8.708;2022-08-05T18:38:42;24.90;68.10
46340;DHT22;47273;49.274;8.708;2022-08-05T18:41:10;24.80;68.20
46340;DHT22;47273;49.274;8.708;2022-08-05T18:43:36;24.80;69.00
46340;DHT22;47273;49.274;8.708;2022-08-05T18:46:02;24.70;69.00
46340;DHT22;47273;49.274;8.708;2022-08-05T18:48:29;24.50;69.60
46340;DHT22;47273;49.274;8.708;2022-08-05T18:50:56;24.60;69.40
46340;DHT22;47273;49.274;8.708;2022-08-05T18:53:40;24.60;69.80
46340;DHT22;47273;49.274;8.708;2022-08-05T18:56:06;24.40;69.80
46340;DHT22;47273;49.274;8.708;2022-08-05T18:58:32;24.40;69.90
46340;DHT22;47273;49.274;8.708;2022-08-05T19:00:59;24.40;69.60
46340;DHT22;47273;49.274;8.708;2022-08-05T19:03:25;24.30;69.40
46340;DHT22;47273;49.274;8.708;2022-08-05T19:05:50;24.30;69.60
46340;DHT22;47273;49.274;8.708;2022-08-05T19:08:16;24.30;69.50
46340;DHT22;47273;49.274;8.708;2022-08-05T19:10:42;24.20;69.30
46340;DHT22;47273;49.274;8.708;2022-08-05T19:13:07;24.20;69.10
46340;DHT22;47273;49.274;8.708;2022-08-05T19:15:34;24.20;69.30
46340;DHT22;47273;49.274;8.708;2022-08-05T19:18:00;24.20;69.10
46340;DHT22;47273;49.274;8.708;2022-08-05T19:20:30;24.20;68.90
46340;DHT22;47273;49.274;8.708;2022-08-05T19:22:56;24.10;68.80
46340;DHT22;47273;49.274;8.708;2022-08-05T19:25:23;24.10;68.70
46340;DHT22;47273;49.274;8.708;2022-08-05T19:27:49;24.10;68.40
46340;DHT22;47273;49.274;8.708;2022-08-05T19:30:16;24.10;68.90
46340;DHT22;47273;49.274;8.708;2022-08-05T19:32:42;24.10;69.00
46340;DHT22;47273;49.274;8.708;2022-08-05T19:35:10;24.10;68.60
46340;DHT22;47273;49.274;8.708;2022-08-05T19:37:36;24.00;68.40
46340;DHT22;47273;49.274;8.708;2022-08-05T19:40:02;24.00;68.50
46340;DHT22;47273;49.274;8.708;2022-08-05T19:42:27;24.00;68.60
46340;DHT22;47273;49.274;8.708;2022-08-05T19:44:53;23.90;69.00
46340;DHT22;47273;49.274;8.708;2022-08-05T19:47:19;23.90;69.00
46340;DHT22;47273;49.274;8.708;2022-08-05T19:49:45;23.80;69.20
46340;DHT22;47273;49.274;8.708;2022-08-05T19:52:13;23.80;69.20
46340;DHT22;47273;49.274;8.708;2022-08-05T19:54:39;23.90;69.30
46340;DHT22;47273;49.274;8.708;2022-08-05T19:57:05;23.80;69.60
46340;DHT22;47273;49.274;8.708;2022-08-05T19:59:31;23.80;69.60
46340;DHT22;47273;49.274;8.708;2022-08-05T20:01:58;23.80;69.40
46340;DHT22;47273;49.274;8.708;2022-08-05T20:04:26;23.90;69.40
46340;DHT22;47273;49.274;8.708;2022-08-05T20:06:52;23.90;68.80